createdAt,value
2023-02-01T00:00:58.308Z,70.35
2023-02-01T00:03:25.376Z,70.77
2023-02-01T00:05:55.294Z,71.35
2023-02-01T00:08:22.140Z,71.36
2023-02-01T00:10:48.988Z,71.59
2023-02-01T00:13:15.866Z,72.02
2023-02-01T00:15:42.974Z,71.59
2023-02-01T00:18:10.199Z,71.89
2023-02-01T00:20:37.104Z,72.65
2023-02-01T00:23:04.026Z,73.12
2023-02-01T00:25:31.003Z,72.15
2023-02-01T00:28:00.103Z,72.24
2023-02-01T00:30:26.975Z,72.21
2023-02-01T00:32:53.844Z,72.94
2023-02-01T00:35:20.727Z,73.42
2023-02-01T00:37:47.606Z,73.24
2023-02-01T00:40:14.543Z,72.94
2023-02-01T00:42:41.380Z,73.54
2023-02-01T00:45:08.876Z,73.53
2023-02-01T00:47:35.749Z,73.46
2023-02-01T00:50:02.643Z,73.53
2023-02-01T00:52:29.567Z,73.73
2023-02-01T00:54:56.414Z,74.01
2023-02-01T00:57:23.318Z,73.82
2023-02-01T00:59:50.214Z,74.70
2023-02-01T01:02:17.117Z,74.92
2023-02-01T01:04:44.022Z,74.47
2023-02-01T01:07:11.012Z,75.45
2023-02-01T01:09:37.965Z,75.76
2023-02-01T01:12:04.867Z,75.35
2023-02-01T01:14:31.923Z,74.82
2023-02-01T01:16:58.936Z,75.15
2023-02-01T01:19:25.813Z,75.18
2023-02-01T01:21:52.757Z,74.85
2023-02-01T01:24:19.675Z,76.15
2023-02-01T01:26:47.063Z,76.10
2023-02-01T01:29:14.133Z,75.22
2023-02-01T01:31:41.025Z,75.05
2023-02-01T01:34:07.948Z,75.38
2023-02-01T01:36:35.249Z,76.14
2023-02-01T01:39:03.566Z,75.98
2023-02-01T01:41:32.319Z,75.63
2023-02-01T01:44:00.162Z,75.57
2023-02-01T01:46:30.857Z,75.51
2023-02-01T01:48:58.155Z,75.79
2023-02-01T01:51:26.288Z,75.92
2023-02-01T01:53:57.129Z,76.21
2023-02-01T01:56:24.255Z,76.90
2023-02-01T01:58:51.522Z,76.33
2023-02-01T02:01:18.459Z,76.19
2023-02-01T02:03:46.955Z,75.87
2023-02-01T02:06:20.470Z,76.12
2023-02-01T02:08:48.306Z,75.99
2023-02-01T02:11:17.818Z,76.51
2023-02-01T02:13:47.835Z,76.71
2023-02-01T02:16:17.885Z,76.70
2023-02-01T02:18:53.686Z,76.70
2023-02-01T02:21:23.636Z,77.78
2023-02-01T02:23:54.166Z,77.94
2023-02-01T02:26:24.364Z,77.43
2023-02-01T02:29:04.150Z,77.26
2023-02-01T02:31:34.133Z,77.53
2023-02-01T02:34:04.231Z,77.77
2023-02-01T02:36:35.549Z,78.16
2023-02-01T02:39:03.944Z,78.47
2023-02-01T02:41:37.155Z,78.00
2023-02-01T02:44:13.260Z,77.71
2023-02-01T02:46:45.152Z,77.64
2023-02-01T02:49:15.352Z,77.81
2023-02-01T02:51:49.033Z,77.12
2023-02-01T02:54:22.076Z,77.72
2023-02-01T02:56:53.108Z,77.65
2023-02-01T02:59:25.931Z,77.36
2023-02-01T03:01:56.491Z,77.36
2023-02-01T03:04:24.923Z,77.78
2023-02-01T03:06:53.053Z,78.03
2023-02-01T03:09:24.152Z,77.38
2023-02-01T03:11:57.783Z,77.52
2023-02-01T03:14:27.868Z,78.64
2023-02-01T03:17:00.544Z,77.81
2023-02-01T03:19:31.201Z,77.60
2023-02-01T03:24:34.436Z,78.16
2023-02-01T03:27:06.406Z,78.30
2023-02-01T03:29:36.406Z,78.39
2023-02-01T03:32:03.384Z,78.26
2023-02-01T03:34:30.555Z,78.00
2023-02-01T03:37:01.130Z,78.26
2023-02-01T03:39:31.226Z,78.21
2023-02-01T03:42:00.559Z,77.93
2023-02-01T03:44:27.839Z,78.05
2023-02-01T03:46:55.048Z,78.63
2023-02-01T03:49:25.110Z,78.04
2023-02-01T03:51:52.811Z,77.62
2023-02-01T03:54:20.190Z,78.01
2023-02-01T03:56:50.216Z,78.26
2023-02-01T03:59:17.269Z,78.39
2023-02-01T04:01:44.506Z,78.73
2023-02-01T04:04:21.977Z,79.04
2023-02-01T04:06:50.943Z,78.74
2023-02-01T04:09:18.479Z,78.83
2023-02-01T04:11:45.418Z,78.68
2023-02-01T04:14:12.491Z,77.78
2023-02-01T04:16:40.258Z,77.41
2023-02-01T04:19:07.441Z,78.01
2023-02-01T04:21:34.455Z,78.10
2023-02-01T04:24:01.640Z,78.70
2023-02-01T04:26:28.731Z,78.23
2023-02-01T04:28:55.751Z,78.08
2023-02-01T04:31:25.942Z,77.83
2023-02-01T04:33:54.667Z,78.37
2023-02-01T04:36:23.327Z,78.70
2023-02-01T04:38:51.055Z,78.65
2023-02-01T04:41:21.439Z,77.92
2023-02-01T04:43:48.495Z,78.50
2023-02-01T04:46:15.786Z,78.21
2023-02-01T04:48:43.089Z,78.74
2023-02-01T04:51:11.311Z,79.17
2023-02-01T04:53:38.591Z,78.90
2023-02-01T04:56:05.758Z,78.65
2023-02-01T04:58:32.647Z,78.47
2023-02-01T05:00:59.671Z,78.66
2023-02-01T05:03:26.645Z,78.70
2023-02-01T05:05:54.914Z,79.51
2023-02-01T05:08:24.017Z,80.05
2023-02-01T05:10:50.972Z,79.66
2023-02-01T05:13:21.226Z,79.36
2023-02-01T05:15:48.395Z,78.93
2023-02-01T05:18:15.230Z,79.10
2023-02-01T05:20:42.176Z,79.45
2023-02-01T05:23:09.147Z,80.24
2023-02-01T05:25:36.241Z,81.02
2023-02-01T05:28:03.363Z,79.92
2023-02-01T05:30:30.686Z,80.26
2023-02-01T05:32:57.955Z,80.03
2023-02-01T05:35:25.083Z,79.54
2023-02-01T05:37:52.665Z,79.88
2023-02-01T05:40:19.821Z,80.45
2023-02-01T05:42:46.972Z,80.85
2023-02-01T05:45:13.929Z,79.86
2023-02-01T05:47:40.910Z,79.88
2023-02-01T05:50:08.392Z,80.25
2023-02-01T05:52:35.849Z,79.64
2023-02-01T05:55:02.856Z,80.07
2023-02-01T05:57:29.973Z,79.62
2023-02-01T05:59:57.590Z,79.91
2023-02-01T06:02:25.657Z,79.63
2023-02-01T06:04:52.745Z,79.51
2023-02-01T06:07:19.683Z,79.44
2023-02-01T06:09:46.688Z,78.99
2023-02-01T06:12:13.571Z,79.34
2023-02-01T06:14:40.689Z,79.01
2023-02-01T06:17:08.205Z,78.76
2023-02-01T06:19:35.373Z,79.44
2023-02-01T06:22:02.507Z,79.25
2023-02-01T06:24:29.755Z,78.72
2023-02-01T06:26:56.706Z,78.59
2023-02-01T06:29:24.987Z,79.03
2023-02-01T06:31:52.181Z,78.35
2023-02-01T06:34:22.091Z,78.35
2023-02-01T06:36:49.576Z,78.65
2023-02-01T06:39:17.483Z,78.92
2023-02-01T06:41:47.738Z,78.93
2023-02-01T06:44:15.127Z,78.73
2023-02-01T06:46:43.168Z,78.99
2023-02-01T06:49:10.672Z,78.55
2023-02-01T06:51:38.165Z,79.71
2023-02-01T06:54:05.282Z,79.09
2023-02-01T06:56:34.679Z,79.20
2023-02-01T06:59:05.121Z,79.20
2023-02-01T07:01:40.664Z,78.03
2023-02-01T07:04:19.749Z,78.56
2023-02-01T07:06:46.868Z,78.18
2023-02-01T07:09:26.210Z,78.44
2023-02-01T07:12:00.122Z,78.66
2023-02-01T07:14:28.153Z,78.17
2023-02-01T07:16:55.702Z,77.84
2023-02-01T07:19:40.331Z,77.97
2023-02-01T07:22:13.502Z,78.23
2023-02-01T07:24:40.567Z,78.17
2023-02-01T07:27:08.820Z,78.26
2023-02-01T07:29:41.706Z,78.15
2023-02-01T07:32:30.778Z,78.65
2023-02-01T07:34:58.561Z,79.28
2023-02-01T07:37:26.013Z,79.12
2023-02-01T07:39:53.006Z,78.15
2023-02-01T07:42:20.155Z,78.64
2023-02-01T07:44:51.815Z,78.45
2023-02-01T07:47:18.823Z,77.81
2023-02-01T07:49:45.711Z,78.29
2023-02-01T07:52:14.407Z,78.97
2023-02-01T07:54:41.326Z,79.34
2023-02-01T07:57:10.037Z,79.00
2023-02-01T07:59:56.913Z,81.52
2023-02-01T08:02:23.973Z,82.33
2023-02-01T08:04:50.884Z,80.80
2023-02-01T08:07:17.871Z,80.20
2023-02-01T08:09:44.722Z,79.58
2023-02-01T08:12:11.655Z,79.22
2023-02-01T08:14:38.661Z,79.45
2023-02-01T08:17:05.550Z,78.86
2023-02-01T08:19:32.690Z,78.80
2023-02-01T08:22:00.690Z,78.59
2023-02-01T08:24:27.827Z,79.50
2023-02-01T08:26:54.867Z,79.37
2023-02-01T08:29:21.924Z,79.10
2023-02-01T08:31:48.913Z,79.21
2023-02-01T08:34:15.980Z,79.20
2023-02-01T08:36:43.071Z,78.83
2023-02-01T08:39:11.496Z,79.06
2023-02-01T08:41:39.065Z,78.99
2023-02-01T08:44:06.309Z,78.31
2023-02-01T08:46:33.206Z,78.78
2023-02-01T08:49:00.337Z,78.47
2023-02-01T08:51:27.375Z,77.83
2023-02-01T08:53:54.299Z,77.99
2023-02-01T08:56:21.557Z,78.38
2023-02-01T08:58:48.524Z,78.28
2023-02-01T09:01:18.390Z,78.50
2023-02-01T09:03:46.063Z,78.34
2023-02-01T09:06:13.801Z,77.49
2023-02-01T09:08:41.151Z,77.40
2023-02-01T09:11:09.381Z,77.78
2023-02-01T09:13:36.793Z,77.64
2023-02-01T09:16:04.629Z,76.81
2023-02-01T09:18:31.576Z,77.06
2023-02-01T09:20:58.569Z,77.21
2023-02-01T09:23:25.585Z,76.54
2023-02-01T09:25:52.745Z,77.08
2023-02-01T09:28:20.408Z,76.63
2023-02-01T09:30:47.736Z,77.24
2023-02-01T09:33:14.889Z,76.57
2023-02-01T09:35:42.024Z,76.35
2023-02-01T09:38:09.174Z,76.50
2023-02-01T09:40:36.883Z,75.89
2023-02-01T09:43:09.708Z,77.11
2023-02-01T09:45:37.975Z,76.65
2023-02-01T09:48:11.744Z,75.89
2023-02-01T09:50:40.483Z,76.74
2023-02-01T09:53:14.076Z,77.23
2023-02-01T09:55:44.139Z,76.49
2023-02-01T09:58:14.102Z,76.06
2023-02-01T10:00:42.709Z,76.04
2023-02-01T10:03:13.642Z,76.07
2023-02-01T10:05:46.127Z,75.75
2023-02-01T10:08:16.045Z,75.22
2023-02-01T10:10:46.224Z,75.30
2023-02-01T10:13:16.459Z,75.92
2023-02-01T10:15:54.337Z,74.66
2023-02-01T10:18:22.641Z,74.37
2023-02-01T10:20:52.762Z,74.83
2023-02-01T10:23:33.443Z,73.89
2023-02-01T10:26:04.666Z,73.81
2023-02-01T10:28:34.820Z,72.80
2023-02-01T10:31:02.832Z,72.17
2023-02-01T10:33:33.010Z,72.32
2023-02-01T10:36:04.908Z,71.77
2023-02-01T10:38:33.507Z,71.76
2023-02-01T10:41:04.437Z,72.34
2023-02-01T10:43:32.235Z,71.49
2023-02-01T10:45:59.268Z,71.75
2023-02-01T10:48:26.679Z,71.03
2023-02-01T10:50:55.132Z,70.79
2023-02-01T10:53:25.156Z,70.56
2023-02-01T10:55:54.012Z,71.00
2023-02-01T10:58:21.399Z,70.58
2023-02-01T11:00:55.062Z,70.77
2023-02-01T11:03:31.951Z,69.98
2023-02-01T11:05:58.947Z,69.00
2023-02-01T11:08:25.862Z,69.61
2023-02-01T11:10:55.794Z,70.39
2023-02-01T11:13:29.457Z,70.09
2023-02-01T11:15:57.447Z,70.04
2023-02-01T11:18:28.171Z,69.17
2023-02-01T11:20:56.437Z,68.59
2023-02-01T11:23:24.888Z,69.61
2023-02-01T11:25:54.992Z,68.75
2023-02-01T11:28:23.838Z,68.37
2023-02-01T11:30:52.686Z,69.11
2023-02-01T11:33:21.181Z,69.32
2023-02-01T11:35:49.430Z,69.14
2023-02-01T11:38:19.434Z,69.08
2023-02-01T11:40:46.350Z,67.93
2023-02-01T11:43:14.646Z,67.49
2023-02-01T11:45:41.744Z,68.17
2023-02-01T11:48:15.055Z,68.32
2023-02-01T11:50:48.229Z,68.19
2023-02-01T11:53:16.638Z,68.31
2023-02-01T11:55:44.944Z,67.70
2023-02-01T11:58:12.239Z,67.94
2023-02-01T12:00:42.535Z,67.33
2023-02-01T12:03:13.698Z,66.85
2023-02-01T12:05:48.463Z,66.87
2023-02-01T12:08:15.957Z,66.53
2023-02-01T12:10:52.650Z,66.46
2023-02-01T12:13:22.678Z,66.82
2023-02-01T12:15:52.663Z,67.42
2023-02-01T12:18:19.957Z,66.42
2023-02-01T12:20:50.124Z,66.24
2023-02-01T12:23:20.195Z,66.65
2023-02-01T12:25:50.509Z,67.11
2023-02-01T12:28:20.706Z,67.32
2023-02-01T12:30:50.808Z,66.93
2023-02-01T12:33:18.125Z,65.97
2023-02-01T12:35:48.403Z,66.13
2023-02-01T12:38:15.873Z,67.19
2023-02-01T12:40:45.966Z,66.33
2023-02-01T12:43:22.890Z,65.87
2023-02-01T12:45:54.406Z,66.20
2023-02-01T12:48:24.358Z,66.50
2023-02-01T12:50:54.363Z,65.41
2023-02-01T12:53:26.475Z,65.40
2023-02-01T12:55:55.616Z,65.45
2023-02-01T12:58:25.904Z,66.56
2023-02-01T13:00:55.852Z,66.00
2023-02-01T13:03:26.032Z,65.31
2023-02-01T13:05:56.292Z,65.43
2023-02-01T13:08:25.686Z,64.99
2023-02-01T13:10:57.582Z,64.04
2023-02-01T13:13:30.494Z,63.90
2023-02-01T13:16:00.402Z,64.23
2023-02-01T13:18:34.060Z,64.66
2023-02-01T13:21:05.843Z,64.52
2023-02-01T13:23:36.019Z,63.90
2023-02-01T13:26:03.296Z,62.91
2023-02-01T13:28:30.632Z,63.00
2023-02-01T13:31:00.992Z,64.29
2023-02-01T13:33:53.309Z,62.95
2023-02-01T13:36:19.566Z,63.70
2023-02-01T13:39:03.920Z,63.85
2023-02-01T13:41:34.035Z,63.69
2023-02-01T13:44:04.257Z,64.37
2023-02-01T13:46:32.842Z,63.75
2023-02-01T13:49:02.583Z,64.09
2023-02-01T13:51:32.629Z,63.05
2023-02-01T13:53:59.560Z,63.82
2023-02-01T13:56:27.477Z,63.72
2023-02-01T13:58:54.530Z,63.04
2023-02-01T14:01:22.970Z,63.70
2023-02-01T14:03:50.290Z,63.83
2023-02-01T14:06:18.916Z,63.79
2023-02-01T14:08:48.640Z,64.17
2023-02-01T14:11:33.552Z,63.87
2023-02-01T14:14:08.555Z,63.32
2023-02-01T14:16:35.708Z,63.64
2023-02-01T14:19:03.046Z,63.72
2023-02-01T14:21:32.411Z,63.84
2023-02-01T14:24:02.295Z,63.11
2023-02-01T14:26:43.198Z,62.93
2023-02-01T14:29:20.376Z,63.22
2023-02-01T14:31:51.168Z,63.49
2023-02-01T14:34:20.243Z,63.83
2023-02-01T14:36:50.558Z,63.83
2023-02-01T14:39:20.670Z,64.82
2023-02-01T14:41:48.460Z,64.51
2023-02-01T14:44:23.398Z,64.78
2023-02-01T14:46:53.401Z,64.77
2023-02-01T14:49:20.726Z,64.62
2023-02-01T14:51:48.245Z,64.94
2023-02-01T14:54:15.499Z,64.69
2023-02-01T14:56:42.762Z,65.07
2023-02-01T14:59:14.247Z,64.56
2023-02-01T15:01:48.612Z,64.47
2023-02-01T15:04:19.767Z,64.97
2023-02-01T15:06:48.137Z,65.22
2023-02-01T15:09:19.130Z,65.40
2023-02-01T15:11:49.299Z,66.37
2023-02-01T15:14:16.470Z,64.84
2023-02-01T15:16:44.086Z,65.09
2023-02-01T15:19:12.596Z,64.71
2023-02-01T15:21:42.844Z,64.60
2023-02-01T15:24:13.409Z,64.92
2023-02-01T15:26:40.983Z,64.26
2023-02-01T15:29:11.854Z,64.70
2023-02-01T15:31:40.556Z,64.50
2023-02-01T15:34:07.769Z,65.98
2023-02-01T15:36:35.195Z,64.46
2023-02-01T15:39:05.367Z,64.79
2023-02-01T15:41:32.760Z,65.88
2023-02-01T15:44:00.274Z,65.37
2023-02-01T15:46:30.669Z,65.59
2023-02-01T15:48:58.040Z,65.96
2023-02-01T15:51:26.685Z,65.09
2023-02-01T15:53:54.054Z,65.73
2023-02-01T15:56:24.082Z,66.02
2023-02-01T15:58:53.378Z,66.06
2023-02-01T16:01:21.163Z,65.78
2023-02-01T16:03:49.821Z,65.64
2023-02-01T16:06:19.777Z,65.99
2023-02-01T16:08:49.775Z,65.63
2023-02-01T16:11:24.076Z,66.12
2023-02-01T16:13:51.159Z,66.59
2023-02-01T16:16:18.799Z,67.28
2023-02-01T16:18:46.410Z,67.29
2023-02-01T16:21:13.524Z,67.59
2023-02-01T16:23:40.838Z,67.54
2023-02-01T16:26:08.210Z,67.58
2023-02-01T16:28:36.078Z,67.70
2023-02-01T16:31:03.689Z,67.60
2023-02-01T16:33:31.110Z,68.40
2023-02-01T16:36:01.808Z,68.22
2023-02-01T16:38:28.838Z,68.02
2023-02-01T16:40:56.122Z,68.29
2023-02-01T16:43:25.214Z,68.10
2023-02-01T16:45:54.535Z,68.36
2023-02-01T16:48:24.662Z,69.17
2023-02-01T16:50:54.144Z,69.20
2023-02-01T16:53:21.558Z,69.04
2023-02-01T16:55:49.162Z,69.48
2023-02-01T16:58:17.336Z,69.22
2023-02-01T17:00:45.098Z,69.59
2023-02-01T17:03:17.680Z,70.15
2023-02-01T17:05:47.523Z,69.99
2023-02-01T17:08:17.921Z,70.03
2023-02-01T17:10:44.945Z,69.91
2023-02-01T17:13:14.953Z,70.42
2023-02-01T17:15:44.338Z,70.63
2023-02-01T17:18:16.019Z,70.98
2023-02-01T17:20:43.441Z,70.91
2023-02-01T17:26:29.061Z,71.60
2023-02-01T17:28:55.803Z,72.13
2023-02-01T17:31:22.614Z,71.69
2023-02-01T17:33:51.502Z,71.75
2023-02-01T17:36:18.658Z,72.08
2023-02-01T17:38:50.932Z,71.73
2023-02-01T17:41:21.101Z,71.96
2023-02-01T17:43:54.683Z,72.21
2023-02-01T17:46:27.501Z,72.88
2023-02-01T17:48:55.260Z,72.30
2023-02-01T17:51:24.415Z,72.52
2023-02-01T17:53:51.536Z,73.17
2023-02-01T17:56:20.716Z,72.94
2023-02-01T17:58:48.163Z,73.21
2023-02-01T18:01:16.134Z,73.32
2023-02-01T18:03:43.588Z,73.06
2023-02-01T18:06:13.243Z,73.54
2023-02-01T18:08:40.439Z,73.50
2023-02-01T18:11:12.383Z,72.75
2023-02-01T18:13:39.307Z,72.70
2023-02-01T18:16:06.663Z,73.22
2023-02-01T18:18:34.402Z,73.48
2023-02-01T18:21:01.627Z,73.53
2023-02-01T18:23:28.802Z,73.48
2023-02-01T18:25:55.952Z,73.40
2023-02-01T18:28:22.999Z,73.39
2023-02-01T18:30:51.954Z,74.01
2023-02-01T18:33:20.578Z,74.68
2023-02-01T18:35:47.785Z,74.61
2023-02-01T18:38:15.009Z,74.02
2023-02-01T18:40:42.359Z,74.33
2023-02-01T18:43:11.077Z,74.78
2023-02-01T18:45:38.408Z,75.98
2023-02-01T18:48:06.375Z,75.19
2023-02-01T18:50:34.931Z,76.51
2023-02-01T18:53:02.953Z,76.51
2023-02-01T18:55:32.831Z,76.62
2023-02-01T18:58:03.252Z,76.63
2023-02-01T19:00:35.928Z,76.79
2023-02-01T19:03:02.816Z,77.24
2023-02-01T19:05:31.007Z,77.41
2023-02-01T19:07:57.951Z,77.71
2023-02-01T19:10:25.013Z,77.93
2023-02-01T19:12:53.181Z,77.27
2023-02-01T19:15:20.352Z,77.45
2023-02-01T19:17:48.265Z,77.11
2023-02-01T19:20:16.581Z,78.22
2023-02-01T19:22:43.659Z,77.34
2023-02-01T19:25:14.236Z,77.07
2023-02-01T19:27:41.219Z,77.45
2023-02-01T19:30:10.023Z,77.44
2023-02-01T19:32:38.845Z,77.84
2023-02-01T19:35:06.251Z,77.57
2023-02-01T19:37:33.332Z,77.86
2023-02-01T19:40:00.247Z,77.64
2023-02-01T19:42:27.737Z,77.61
2023-02-01T19:44:54.682Z,77.45
2023-02-01T19:47:21.673Z,77.63
2023-02-01T19:49:48.660Z,77.50
2023-02-01T19:52:15.694Z,76.87
2023-02-01T19:54:42.765Z,77.23
2023-02-01T19:57:09.682Z,76.96
2023-02-01T19:59:36.624Z,76.71
2023-02-01T20:02:03.268Z,77.10
2023-02-01T20:04:30.501Z,77.11
2023-02-01T20:06:57.724Z,76.94
2023-02-01T20:09:28.346Z,76.80
2023-02-01T20:11:55.634Z,77.03
2023-02-01T20:14:24.983Z,77.24
2023-02-01T20:16:52.391Z,77.64
2023-02-01T20:19:20.274Z,77.37
2023-02-01T20:21:47.572Z,77.55
2023-02-01T20:24:15.798Z,77.79
2023-02-01T20:26:43.751Z,77.08
2023-02-01T20:29:10.868Z,77.46
2023-02-01T20:31:38.031Z,77.40
2023-02-01T20:34:05.336Z,77.25
2023-02-01T20:36:34.104Z,77.37
2023-02-01T20:39:03.069Z,77.19
2023-02-01T20:41:31.243Z,77.50
2023-02-01T20:43:58.554Z,77.29
2023-02-01T20:46:26.236Z,76.66
2023-02-01T20:48:53.920Z,76.38
2023-02-01T20:51:22.752Z,76.25
2023-02-01T20:53:54.346Z,76.31
2023-02-01T20:56:22.389Z,76.40
2023-02-01T20:58:50.869Z,76.32
2023-02-01T21:01:18.202Z,76.22
2023-02-01T21:03:45.238Z,76.55
2023-02-01T21:06:13.372Z,76.42
2023-02-01T21:08:41.863Z,76.26
2023-02-01T21:11:10.503Z,76.96
2023-02-01T21:13:43.198Z,76.32
2023-02-01T21:16:11.745Z,75.96
2023-02-01T21:18:39.019Z,76.14
2023-02-01T21:21:08.781Z,76.20
2023-02-01T21:23:45.269Z,75.96
2023-02-01T21:26:13.487Z,76.21
2023-02-01T21:28:40.717Z,76.13
2023-02-01T21:31:07.833Z,76.56
2023-02-01T21:33:35.020Z,76.01
2023-02-01T21:36:03.724Z,75.88
2023-02-01T21:38:30.913Z,75.83
2023-02-01T21:41:01.100Z,76.22
2023-02-01T21:43:28.228Z,75.94
2023-02-01T21:45:55.378Z,76.09
2023-02-01T21:48:24.062Z,77.00
2023-02-01T21:50:51.422Z,77.04
2023-02-01T21:53:18.369Z,77.27
2023-02-01T21:55:45.330Z,76.58
2023-02-01T21:58:13.307Z,76.95
2023-02-01T22:00:40.456Z,76.88
2023-02-01T22:03:07.432Z,76.82
2023-02-01T22:05:34.832Z,77.43
2023-02-01T22:08:01.974Z,76.90
2023-02-01T22:10:29.049Z,76.71
2023-02-01T22:12:56.004Z,77.38
2023-02-01T22:15:23.114Z,79.27
2023-02-01T22:17:50.347Z,77.72
2023-02-01T22:20:17.521Z,77.71
2023-02-01T22:22:47.745Z,78.05
2023-02-01T22:25:14.864Z,77.81
2023-02-01T22:28:31.288Z,77.42
2023-02-01T22:30:29.035Z,77.65
2023-02-01T22:32:55.959Z,77.87
2023-02-01T22:35:23.311Z,77.64
2023-02-01T22:37:50.493Z,77.55
2023-02-01T22:40:17.574Z,76.98
2023-02-01T22:42:44.843Z,76.77
2023-02-01T22:45:11.722Z,77.11
2023-02-01T22:47:38.698Z,77.12
2023-02-01T22:50:06.004Z,77.16
2023-02-01T22:52:32.886Z,76.26
2023-02-01T22:54:59.791Z,76.34
2023-02-01T22:57:26.662Z,76.82
2023-02-01T22:59:53.661Z,76.96
2023-02-01T23:02:20.613Z,77.76
2023-02-01T23:04:47.631Z,77.55
2023-02-01T23:07:14.491Z,76.80
2023-02-01T23:09:41.351Z,76.98
2023-02-01T23:12:08.252Z,76.62
2023-02-01T23:14:58.662Z,76.80
2023-02-01T23:17:25.534Z,76.55
2023-02-01T23:19:52.402Z,76.36
2023-02-01T23:22:19.495Z,76.27
2023-02-01T23:24:46.360Z,76.40
2023-02-01T23:27:13.253Z,75.85
2023-02-01T23:29:40.151Z,75.45
2023-02-01T23:32:07.402Z,75.15
2023-02-01T23:34:34.528Z,75.66
2023-02-01T23:37:01.611Z,75.58
2023-02-01T23:39:28.693Z,75.51
2023-02-01T23:41:55.531Z,75.42
2023-02-01T23:44:22.525Z,75.03
2023-02-01T23:46:49.515Z,75.25
2023-02-01T23:49:17.030Z,75.17
2023-02-01T23:51:44.343Z,76.10
2023-02-01T23:54:11.896Z,75.68
2023-02-01T23:56:40.014Z,75.40
2023-02-01T23:59:08.067Z,75.95
